x

North Equatorial One- 470 Nm East Of Martinique (41040) Wave Buoy

2:50am - Sun 14th Feb 2016 All times are UTC.

  • Sig Wave height 9.5ft
  • Swell Direction
  • Peak Period 9s
  • Average Period 7s
  • Wind
    20mph, 25mph gusts
  • Sea Temp 79°f
  • Air Temp 78°f
  • Sea Pressure 1016.1mb

More Historic Weather Station data

Upgrade to MSW Pro to gain access to the past 30 days of data for over 8000 Wavebouys and Weather Stations around the globe.

Join Pro

Comparision Forecast

View Surf forecast
   
Sun 02/14 2:50am 9.5ft 9s 7s 20 25 mph 1016.1mb 79f 78f
1:50am 9.5ft 11s 7s 11 16 mph 1016.9mb 79f 75f
12:50am 10ft 10s 7s 20 27 mph 1016.5mb 79f 78f
Sat 02/13 11:50pm 9.5ft 10s 7s 18 22 mph 1016.2mb 79f 78f
10:50pm 9ft 10s 7s 18 20 mph 1015.7mb 79f 77f
9:50pm 10ft 10s 7s 22 29 mph 1015.1mb 79f 77f
8:50pm 10ft 10s 7s 20 22 mph 1014.7mb 79f 79f
7:50pm 9ft 10s 7s 18 22 mph 1014.5mb 79f 79f
6:50pm 10ft 10s 7s 18 22 mph 1014.4mb 79f 78f
5:50pm 9.5ft 9s 7s 18 22 mph 1014.8mb 79f 78f
4:50pm 10ft 10s 7s 18 22 mph 1015.4mb 79f 78f
3:50pm 10ft 10s 7s 20 25 mph 1016.3mb 79f 77f
2:50pm 9ft 10s 7s 22 27 mph 1016.6mb 79f 78f
1:50pm 9ft 10s 7s 22 27 mph 1016.8mb 79f 78f
12:50pm 9ft 10s 7s 22 25 mph 1016.5mb 79f 78f
11:50am 8.5ft 10s 6s 22 27 mph 1015.8mb 79f 78f
10:50am 8ft 9s 6s 22 25 mph 1015.6mb 79f 78f
9:50am 8ft 9s 7s 20 22 mph 1015.1mb 79f 77f
8:50am 8.5ft 9s 7s 20 25 mph 1014.5mb 79f 78f
7:50am 8.5ft 9s 7s 18 22 mph 1014.2mb 79f 78f
6:50am 8ft 10s 7s 18 22 mph 1014.5mb 79f 78f
5:50am 8.5ft 9s 7s 18 22 mph 1015.2mb 79f 78f
4:50am 8ft 9s 7s 18 22 mph 1015.8mb 79f 77f
3:50am 8.5ft 10s 7s 18 20 mph 1016.5mb 79f 78f
2:50am 9ft 9s 7s 20 22 mph 1016.6mb 79f 78f
1:50am 8ft 9s 7s 20 25 mph 1016.8mb 79f 78f
12:50am 8.5ft 9s 6s 22 27 mph 1016.8mb 79f 78f
Fri 02/12 11:50pm 7.5ft 10s 6s 20 25 mph 1016.8mb 79f 78f
10:50pm 7.5ft 9s 6s 20 25 mph 1016.3mb 79f 78f
9:50pm 8.5ft 9s 7s 20 22 mph 1015.9mb 79f 78f
8:50pm 8ft 9s 7s 20 25 mph 1015.7mb 79f 78f
7:50pm 8ft 9s 7s 20 22 mph 1015.3mb 79f 78f
6:50pm 7.5ft 9s 6s 20 22 mph 1015.1mb 79f 79f
5:50pm 7.5ft 9s 6s 18 22 mph 1015.7mb 79f 78f
4:50pm 7.5ft 9s 6s 18 22 mph 1016.6mb 79f 78f
3:50pm 7ft 9s 6s 18 22 mph 1017.7mb 79f 78f
2:50pm 7ft 9s 6s 18 22 mph 1018.4mb 79f 78f
1:50pm 7ft 9s 6s 20 22 mph 1018.7mb 79f 78f
12:50pm 7.5ft 8s 7s 20 22 mph 1018.3mb 79f 78f
11:50am 7ft 9s 7s 20 22 mph 1017.7mb 79f 78f
10:50am 7ft 9s 7s 16 18 mph 1017.7mb 79f 78f
9:50am 7ft 9s 7s 13 18 mph 1017.2mb 79f 78f
8:50am 7.5ft 9s 6s 16 20 mph 1016.4mb 79f 78f
7:50am 8ft 8s 7s 16 18 mph 1016.2mb 79f 78f
6:50am 8ft 9s 7s 16 20 mph 1015.8mb 79f 78f
5:50am 8ft 9s 7s 16 20 mph 1015.7mb 79f 78f
4:50am 8ft 8s 7s 13 18 mph 1016.4mb 79f 78f
3:50am 8ft 9s 7s 18 20 mph 1016.8mb 79f 78f
2:50am 7ft 9s 6s 16 20 mph 1017.3mb 79f 78f
1:50am 7.5ft 9s 7s 16 20 mph 1017.5mb 79f 78f
12:50am 8ft 9s 7s 16 20 mph 1017.3mb 79f 78f
Thu 02/11 11:50pm 8ft 8s 7s 16 18 mph 1017.4mb 79f 78f
10:50pm 7.5ft 9s 7s 18 22 mph 1016.8mb 79f 78f
9:50pm 8ft 13s 7s 16 18 mph 1016.5mb 79f 78f
8:50pm 8ft 9s 7s 18 20 mph 1016.2mb 79f 78f
7:50pm 8ft 9s 7s 18 22 mph 1015.8mb 79f 78f
6:50pm 8ft 8s 6s 18 22 mph 1015.5mb 79f 79f
5:50pm 8.5ft 9s 7s 18 22 mph 1015.7mb 79f 78f
4:50pm 9ft 8s 7s 20 22 mph 1016.1mb 79f 78f
3:50pm 8.5ft 14s 7s 22 25 mph 1016.6mb 79f 78f
2:50pm 8.5ft 9s 7s 20 25 mph 1017.4mb 79f 78f
1:50pm 8.5ft 9s 7s 20 22 mph 1018.4mb 79f 78f
12:50pm 9ft 15s 7s 20 22 mph 1018.7mb 79f 78f
11:50am 9ft 13s 7s 22 25 mph 1018.3mb 79f 78f
10:50am 9ft 9s 7s 20 25 mph 1017.8mb 79f 78f
9:50am 8.5ft 9s 7s 18 22 mph 1017.3mb 79f 78f
8:50am 9ft 15s 7s 18 20 mph 1017.1mb 79f 78f
7:50am 9ft 9s 7s 20 25 mph 1016.7mb 79f 78f
6:50am 9ft 15s 7s 20 22 mph 1016.8mb 79f 78f
5:50am 9ft 15s 7s 18 22 mph 1017.1mb 79f 78f
4:50am 9ft 9s 7s 22 25 mph 1017.4mb 79f 78f
3:50am 8.5ft 15s 6s 20 25 mph 1018mb 79f 78f
2:50am 8.5ft 9s 7s 20 25 mph 1018.2mb 79f 78f
1:50am 9ft 16s 7s 22 27 mph 1018.3mb 79f 78f
12:50am 8.5ft 9s 7s 20 25 mph 1018.5mb 79f 78f
Wed 02/10 11:50pm 9ft 9s 7s 20 25 mph 1018.3mb 79f 78f
10:50pm 8ft 8s 7s 20 25 mph 1017.9mb 79f 78f
9:50pm 9ft 8s 7s 20 25 mph 1017.5mb 79f 78f
8:50pm 9ft 9s 7s 18 25 mph 1017.1mb 79f 78f
7:50pm 8.5ft 17s 7s 18 22 mph 1016.8mb 79f 79f
6:50pm 8ft 17s 7s 20 22 mph 1016.4mb 79f 79f
5:50pm 8.5ft 8s 7s 18 22 mph 1016.4mb 79f 78f
4:50pm 8ft 17s 6s 20 22 mph 1017.3mb 79f 78f
3:50pm 9ft 8s 7s 18 22 mph 1018mb 79f 78f
2:50pm 9ft 9s 7s 20 25 mph 1018.6mb 79f 78f
1:50pm 8ft 17s 6s 20 27 mph 1019mb 79f 78f
12:50pm 9ft 9s 6s 22 27 mph 1018.8mb 79f 79f
11:50am 9ft 9s 7s 22 27 mph 1018.2mb 79f 78f
10:50am 8ft 9s 7s 22 25 mph 1017.5mb 79f 78f
9:50am 8ft 8s 6s 20 22 mph 1017.1mb 79f 78f
8:50am 8ft 9s 7s 18 22 mph 1016.8mb 79f 78f
7:50am 9ft 9s 7s 20 22 mph 1016.9mb 79f 78f
6:50am 8.5ft 8s 7s 20 25 mph 1017mb 79f 78f
5:50am 8ft 8s 7s 18 22 mph 1017.6mb 79f 78f
4:50am 8ft 17s 6s 20 22 mph 1018.2mb 79f 78f